sensor_id;sensor_type;location;lat;lon;timestamp;pressure;altitude;pressure_sealevel;temperature;humidity
72414;BME280;60995;52.154;4.498;2023-08-01T00:00:10;99832.88;;;18.58;100.00
72414;BME280;60995;52.154;4.498;2023-08-01T00:02:28;99835.63;;;18.58;100.00
72414;BME280;60995;52.154;4.498;2023-08-01T00:04:44;99831.84;;;18.52;100.00
72414;BME280;60995;52.154;4.498;2023-08-01T00:07:00;99823.19;;;18.49;100.00
72414;BME280;60995;52.154;4.498;2023-08-01T00:09:16;99825.06;;;18.62;100.00
72414;BME280;60995;52.154;4.498;2023-08-01T00:11:33;99821.03;;;18.51;100.00
72414;BME280;60995;52.154;4.498;2023-08-01T00:13:49;99818.09;;;18.46;100.00
72414;BME280;60995;52.154;4.498;2023-08-01T00:16:05;99820.47;;;18.35;100.00
72414;BME280;60995;52.154;4.498;2023-08-01T00:18:24;99818.13;;;18.32;100.00
72414;BME280;60995;52.154;4.498;2023-08-01T00:20:40;99808.84;;;18.33;100.00
72414;BME280;60995;52.154;4.498;2023-08-01T00:22:57;99810.97;;;18.25;100.00
72414;BME280;60995;52.154;4.498;2023-08-01T00:25:13;99805.88;;;18.28;100.00
72414;BME280;60995;52.154;4.498;2023-08-01T00:27:30;99803.78;;;18.17;100.00
72414;BME280;60995;52.154;4.498;2023-08-01T00:29:48;99807.59;;;18.29;100.00
72414;BME280;60995;52.154;4.498;2023-08-01T00:32:04;99796.38;;;18.31;100.00
72414;BME280;60995;52.154;4.498;2023-08-01T00:34:21;99801.66;;;18.26;100.00
72414;BME280;60995;52.154;4.498;2023-08-01T00:36:37;99794.28;;;18.33;100.00
72414;BME280;60995;52.154;4.498;2023-08-01T00:38:53;99788.16;;;18.31;100.00
72414;BME280;60995;52.154;4.498;2023-08-01T00:41:10;99786.03;;;18.26;100.00
72414;BME280;60995;52.154;4.498;2023-08-01T00:43:26;99778.88;;;18.25;100.00
72414;BME280;60995;52.154;4.498;2023-08-01T00:45:42;99780.16;;;18.23;100.00
72414;BME280;60995;52.154;4.498;2023-08-01T00:47:59;99787.50;;;18.22;100.00
72414;BME280;60995;52.154;4.498;2023-08-01T00:50:15;99773.78;;;18.29;100.00
72414;BME280;60995;52.154;4.498;2023-08-01T00:52:32;99770.84;;;18.30;100.00
72414;BME280;60995;52.154;4.498;2023-08-01T00:54:48;99760.25;;;18.27;100.00
72414;BME280;60995;52.154;4.498;2023-08-01T00:57:05;99764.88;;;18.40;100.00
72414;BME280;60995;52.154;4.498;2023-08-01T00:59:21;99758.94;;;18.43;100.00
72414;BME280;60995;52.154;4.498;2023-08-01T01:01:38;99764.00;;;18.53;100.00
72414;BME280;60995;52.154;4.498;2023-08-01T01:03:54;99749.38;;;18.66;100.00
72414;BME280;60995;52.154;4.498;2023-08-01T01:06:19;99753.78;;;18.74;100.00
72414;BME280;60995;52.154;4.498;2023-08-01T01:08:40;99744.09;;;18.64;100.00
72414;BME280;60995;52.154;4.498;2023-08-01T01:10:56;99739.38;;;18.78;100.00
72414;BME280;60995;52.154;4.498;2023-08-01T01:13:12;99753.34;;;18.77;100.00
72414;BME280;60995;52.154;4.498;2023-08-01T01:15:29;99754.66;;;18.67;100.00
72414;BME280;60995;52.154;4.498;2023-08-01T01:17:45;99754.03;;;18.59;100.00
72414;BME280;60995;52.154;4.498;2023-08-01T01:20:01;99764.00;;;18.53;100.00
72414;BME280;60995;52.154;4.498;2023-08-01T01:22:18;99767.38;;;18.48;100.00
72414;BME280;60995;52.154;4.498;2023-08-01T01:24:35;99776.69;;;18.54;100.00
72414;BME280;60995;52.154;4.498;2023-08-01T01:26:54;99769.50;;;18.53;100.00
72414;BME280;60995;52.154;4.498;2023-08-01T01:29:13;99759.59;;;18.39;100.00
72414;BME280;60995;52.154;4.498;2023-08-01T01:31:31;99754.16;;;18.32;100.00
72414;BME280;60995;52.154;4.498;2023-08-01T01:33:49;99760.94;;;18.23;100.00
72414;BME280;60995;52.154;4.498;2023-08-01T01:36:05;99747.00;;;17.91;100.00
72414;BME280;60995;52.154;4.498;2023-08-01T01:38:22;99753.56;;;18.03;100.00
72414;BME280;60995;52.154;4.498;2023-08-01T01:40:38;99744.69;;;18.08;100.00
72414;BME280;60995;52.154;4.498;2023-08-01T01:42:54;99741.09;;;18.14;100.00
72414;BME280;60995;52.154;4.498;2023-08-01T01:45:10;99741.72;;;18.23;100.00
72414;BME280;60995;52.154;4.498;2023-08-01T01:47:26;99742.28;;;18.31;100.00
72414;BME280;60995;52.154;4.498;2023-08-01T01:49:43;99745.91;;;18.32;100.00
72414;BME280;60995;52.154;4.498;2023-08-01T01:51:59;99743.56;;;18.35;100.00
72414;BME280;60995;52.154;4.498;2023-08-01T01:54:15;99746.06;;;18.44;100.00
72414;BME280;60995;52.154;4.498;2023-08-01T01:56:31;99743.56;;;18.42;100.00
72414;BME280;60995;52.154;4.498;2023-08-01T01:58:48;99747.34;;;18.41;100.00
72414;BME280;60995;52.154;4.498;2023-08-01T02:01:04;99752.38;;;18.51;100.00
72414;BME280;60995;52.154;4.498;2023-08-01T02:03:21;99754.50;;;18.49;100.00
72414;BME280;60995;52.154;4.498;2023-08-01T02:05:37;99756.41;;;18.42;100.00
72414;BME280;60995;52.154;4.498;2023-08-01T02:07:53;99761.00;;;18.61;100.00
72414;BME280;60995;52.154;4.498;2023-08-01T02:10:09;99746.59;;;18.73;100.00
72414;BME280;60995;52.154;4.498;2023-08-01T02:12:26;99741.09;;;18.73;100.00
72414;BME280;60995;52.154;4.498;2023-08-01T02:14:43;99734.78;;;18.72;100.00
72414;BME280;60995;52.154;4.498;2023-08-01T02:16:59;99741.94;;;18.80;100.00
72414;BME280;60995;52.154;4.498;2023-08-01T02:19:15;99738.38;;;18.66;100.00
72414;BME280;60995;52.154;4.498;2023-08-01T02:21:32;99739.00;;;18.75;100.00
72414;BME280;60995;52.154;4.498;2023-08-01T02:23:48;99741.09;;;18.73;100.00
72414;BME280;60995;52.154;4.498;2023-08-01T02:26:04;99735.38;;;18.74;100.00
72414;BME280;60995;52.154;4.498;2023-08-01T02:28:20;99738.38;;;18.66;100.00
72414;BME280;60995;52.154;4.498;2023-08-01T02:30:37;99726.81;;;18.50;100.00
72414;BME280;60995;52.154;4.498;2023-08-01T02:32:53;99729.09;;;18.67;100.00
72414;BME280;60995;52.154;4.498;2023-08-01T02:35:09;99730.97;;;18.66;100.00
72414;BME280;60995;52.154;4.498;2023-08-01T02:37:25;99718.75;;;18.62;100.00
72414;BME280;60995;52.154;4.498;2023-08-01T02:39:42;99723.97;;;18.71;100.00
72414;BME280;60995;52.154;4.498;2023-08-01T02:41:58;99734.31;;;18.75;100.00
72414;BME280;60995;52.154;4.498;2023-08-01T02:44:15;99735.22;;;18.62;100.00
72414;BME280;60995;52.154;4.498;2023-08-01T02:46:31;99732.28;;;18.57;100.00
72414;BME280;60995;52.154;4.498;2023-08-01T02:48:48;99738.41;;;18.59;100.00
72414;BME280;60995;52.154;4.498;2023-08-01T02:51:04;99734.16;;;18.63;100.00
72414;BME280;60995;52.154;4.498;2023-08-01T02:53:20;99747.47;;;18.66;100.00
72414;BME280;60995;52.154;4.498;2023-08-01T02:55:37;99744.94;;;18.65;100.00
72414;BME280;60995;52.154;4.498;2023-08-01T02:57:54;99739.03;;;18.61;100.00
72414;BME280;60995;52.154;4.498;2023-08-01T03:00:10;99736.06;;;18.70;100.00
72414;BME280;60995;52.154;4.498;2023-08-01T03:02:30;99736.47;;;18.66;100.00
72414;BME280;60995;52.154;4.498;2023-08-01T03:04:48;99737.72;;;18.71;100.00
72414;BME280;60995;52.154;4.498;2023-08-01T03:07:04;99743.66;;;18.67;100.00
72414;BME280;60995;52.154;4.498;2023-08-01T03:09:20;99743.06;;;18.59;100.00
72414;BME280;60995;52.154;4.498;2023-08-01T03:11:36;99743.22;;;18.71;100.00
72414;BME280;60995;52.154;4.498;2023-08-01T03:13:53;99747.91;;;18.63;100.00
72414;BME280;60995;52.154;4.498;2023-08-01T03:16:09;99759.34;;;18.54;100.00
72414;BME280;60995;52.154;4.498;2023-08-01T03:18:26;99764.00;;;18.53;100.00
72414;BME280;60995;52.154;4.498;2023-08-01T03:20:42;99761.31;;;18.40;100.00
72414;BME280;60995;52.154;4.498;2023-08-01T03:22:58;99762.13;;;18.47;100.00
72414;BME280;60995;52.154;4.498;2023-08-01T03:25:14;99756.84;;;18.45;100.00
72414;BME280;60995;52.154;4.498;2023-08-01T03:27:31;99756.41;;;18.55;100.00
72414;BME280;60995;52.154;4.498;2023-08-01T03:29:48;99763.59;;;18.43;100.00
72414;BME280;60995;52.154;4.498;2023-08-01T03:32:04;99757.88;;;18.51;100.00
72414;BME280;60995;52.154;4.498;2023-08-01T03:34:21;99753.06;;;18.40;100.00
72414;BME280;60995;52.154;4.498;2023-08-01T03:36:37;99763.16;;;18.46;100.00
72414;BME280;60995;52.154;4.498;2023-08-01T03:38:53;99755.75;;;18.53;100.00
72414;BME280;60995;52.154;4.498;2023-08-01T03:41:10;99747.09;;;18.49;100.00
72414;BME280;60995;52.154;4.498;2023-08-01T03:43:26;99754.94;;;18.52;100.00
72414;BME280;60995;52.154;4.498;2023-08-01T03:45:42;99747.50;;;18.60;100.00
72414;BME280;60995;52.154;4.498;2023-08-01T03:47:59;99750.47;;;18.58;100.00
72414;BME280;60995;52.154;4.498;2023-08-01T03:50:15;99755.13;;;18.58;100.00
72414;BME280;60995;52.154;4.498;2023-08-01T03:52:31;99753.81;;;18.60;100.00
72414;BME280;60995;52.154;4.498;2023-08-01T03:54:48;99755.56;;;18.48;100.00
72414;BME280;60995;52.154;4.498;2023-08-01T03:57:04;99755.97;;;18.58;100.00
72414;BME280;60995;52.154;4.498;2023-08-01T03:59:21;99765.28;;;18.50;100.00
72414;BME280;60995;52.154;4.498;2023-08-01T04:01:37;99769.53;;;18.40;100.00
72414;BME280;60995;52.154;4.498;2023-08-01T04:03:53;99766.56;;;18.41;100.00
72414;BME280;60995;52.154;4.498;2023-08-01T04:06:09;99776.31;;;18.30;100.00
72414;BME280;60995;52.154;4.498;2023-08-01T04:08:26;99770.81;;;18.24;100.00
72414;BME280;60995;52.154;4.498;2023-08-01T04:10:43;99765.34;;;18.30;100.00
72414;BME280;60995;52.154;4.498;2023-08-01T04:13:00;99770.41;;;18.27;100.00
72414;BME280;60995;52.154;4.498;2023-08-01T04:15:17;99772.09;;;18.28;100.00
72414;BME280;60995;52.154;4.498;2023-08-01T04:17:33;99768.09;;;18.30;100.00
72414;BME280;60995;52.154;4.498;2023-08-01T04:19:49;99772.91;;;18.35;100.00
72414;BME280;60995;52.154;4.498;2023-08-01T04:22:05;99779.28;;;18.35;100.00
72414;BME280;60995;52.154;4.498;2023-08-01T04:24:22;99777.78;;;18.26;100.00
72414;BME280;60995;52.154;4.498;2023-08-01T04:26:41;99768.91;;;18.38;100.00
72414;BME280;60995;52.154;4.498;2023-08-01T04:28:57;99768.06;;;18.37;100.00
72414;BME280;60995;52.154;4.498;2023-08-01T04:31:14;99767.66;;;18.27;100.00
72414;BME280;60995;52.154;4.498;2023-08-01T04:33:31;99767.03;;;18.25;100.00
72414;BME280;60995;52.154;4.498;2023-08-01T04:35:47;99767.00;;;18.31;100.00
72414;BME280;60995;52.154;4.498;2023-08-01T04:38:05;99762.78;;;18.29;100.00
72414;BME280;60995;52.154;4.498;2023-08-01T04:40:21;99752.63;;;18.43;100.00
72414;BME280;60995;52.154;4.498;2023-08-01T04:42:37;99764.72;;;18.22;100.00
72414;BME280;60995;52.154;4.498;2023-08-01T04:44:53;99757.50;;;18.34;100.00
72414;BME280;60995;52.154;4.498;2023-08-01T04:47:10;99748.88;;;18.30;100.00
72414;BME280;60995;52.154;4.498;2023-08-01T04:49:27;99749.88;;;18.43;100.00
72414;BME280;60995;52.154;4.498;2023-08-01T04:51:44;99758.56;;;18.40;100.00
72414;BME280;60995;52.154;4.498;2023-08-01T04:54:00;99740.84;;;18.35;100.00
72414;BME280;60995;52.154;4.498;2023-08-01T04:56:17;99757.31;;;18.35;100.00
72414;BME280;60995;52.154;4.498;2023-08-01T04:58:33;99756.41;;;18.55;100.00
72414;BME280;60995;52.154;4.498;2023-08-01T05:00:49;99762.69;;;18.62;100.00
72414;BME280;60995;52.154;4.498;2023-08-01T05:03:05;99766.34;;;18.43;100.00
72414;BME280;60995;52.154;4.498;2023-08-01T05:05:22;99759.38;;;18.47;100.00
72414;BME280;60995;52.154;4.498;2023-08-01T05:07:38;99756.19;;;18.57;100.00
72414;BME280;60995;52.154;4.498;2023-08-01T05:09:54;99765.25;;;18.57;100.00
72414;BME280;60995;52.154;4.498;2023-08-01T05:12:10;99756.41;;;18.55;100.00
72414;BME280;60995;52.154;4.498;2023-08-01T05:14:26;99766.53;;;18.55;100.00
72414;BME280;60995;52.154;4.498;2023-08-01T05:16:43;99752.34;;;18.64;100.00
72414;BME280;60995;52.154;4.498;2023-08-01T05:18:59;99755.94;;;18.65;100.00
72414;BME280;60995;52.154;4.498;2023-08-01T05:21:15;99752.34;;;18.64;100.00
72414;BME280;60995;52.154;4.498;2023-08-01T05:23:32;99762.25;;;18.65;100.00
72414;BME280;60995;52.154;4.498;2023-08-01T05:25:48;99750.91;;;18.55;100.00
72414;BME280;60995;52.154;4.498;2023-08-01T05:28:04;99753.19;;;18.65;100.00
72414;BME280;60995;52.154;4.498;2023-08-01T05:30:20;99759.88;;;18.76;100.00
72414;BME280;60995;52.154;4.498;2023-08-01T05:32:37;99749.06;;;18.94;100.00
72414;BME280;60995;52.154;4.498;2023-08-01T05:34:55;99747.78;;;18.97;100.00
72414;BME280;60995;52.154;4.498;2023-08-01T05:37:11;99742.50;;;19.59;100.00
72414;BME280;60995;52.154;4.498;2023-08-01T05:39:27;99734.50;;;19.83;100.00
72414;BME280;60995;52.154;4.498;2023-08-01T05:41:44;99730.50;;;20.04;100.00
72414;BME280;60995;52.154;4.498;2023-08-01T05:44:00;99724.38;;;20.21;100.00
72414;BME280;60995;52.154;4.498;2023-08-01T05:46:16;99724.72;;;20.98;100.00
72414;BME280;60995;52.154;4.498;2023-08-01T05:48:33;99705.22;;;22.49;100.00
72414;BME280;60995;52.154;4.498;2023-08-01T05:50:49;99711.84;;;24.20;100.00
72414;BME280;60995;52.154;4.498;2023-08-01T05:53:05;99727.09;;;24.39;100.00
72414;BME280;60995;52.154;4.498;2023-08-01T05:55:23;99704.47;;;24.70;100.00
72414;BME280;60995;52.154;4.498;2023-08-01T05:57:40;99701.97;;;23.10;100.00
72414;BME280;60995;52.154;4.498;2023-08-01T05:59:56;99711.97;;;22.29;100.00
72414;BME280;60995;52.154;4.498;2023-08-01T06:02:12;99723.66;;;21.42;100.00
72414;BME280;60995;52.154;4.498;2023-08-01T06:04:28;99745.84;;;21.05;100.00
72414;BME280;60995;52.154;4.498;2023-08-01T06:06:45;99758.09;;;21.09;100.00
72414;BME280;60995;52.154;4.498;2023-08-01T06:09:01;99766.63;;;21.07;100.00
72414;BME280;60995;52.154;4.498;2023-08-01T06:11:18;99771.19;;;21.44;100.00
72414;BME280;60995;52.154;4.498;2023-08-01T06:13:34;99784.31;;;20.99;100.00
72414;BME280;60995;52.154;4.498;2023-08-01T06:15:51;99788.09;;;20.49;100.00
72414;BME280;60995;52.154;4.498;2023-08-01T06:18:07;99810.44;;;20.16;100.00
72414;BME280;60995;52.154;4.498;2023-08-01T06:20:23;99816.72;;;20.23;100.00
72414;BME280;60995;52.154;4.498;2023-08-01T06:22:41;99822.38;;;19.78;100.00
72414;BME280;60995;52.154;4.498;2023-08-01T06:24:58;99835.53;;;19.44;100.00
72414;BME280;60995;52.154;4.498;2023-08-01T06:27:14;99828.38;;;20.44;100.00
72414;BME280;60995;52.154;4.498;2023-08-01T06:29:31;99795.94;;;22.52;100.00
72414;BME280;60995;52.154;4.498;2023-08-01T06:31:47;99771.75;;;23.41;100.00
72414;BME280;60995;52.154;4.498;2023-08-01T06:34:03;99763.03;;;23.95;100.00
72414;BME280;60995;52.154;4.498;2023-08-01T06:36:20;99759.19;;;23.50;100.00
72414;BME280;60995;52.154;4.498;2023-08-01T06:38:36;99747.94;;;23.74;100.00
72414;BME280;60995;52.154;4.498;2023-08-01T06:40:52;99742.84;;;24.00;100.00
72414;BME280;60995;52.154;4.498;2023-08-01T06:43:09;99758.50;;;22.73;100.00
72414;BME280;60995;52.154;4.498;2023-08-01T06:45:25;99761.53;;;22.72;100.00
72414;BME280;60995;52.154;4.498;2023-08-01T06:47:41;99776.59;;;22.28;100.00
72414;BME280;60995;52.154;4.498;2023-08-01T06:49:57;99789.16;;;21.35;100.00
72414;BME280;60995;52.154;4.498;2023-08-01T06:52:14;99789.31;;;22.06;100.00
72414;BME280;60995;52.154;4.498;2023-08-01T06:54:31;99782.84;;;22.12;100.00
72414;BME280;60995;52.154;4.498;2023-08-01T06:56:48;99783.91;;;22.11;100.00
72414;BME280;60995;52.154;4.498;2023-08-01T06:59:04;99779.13;;;23.35;100.00
72414;BME280;60995;52.154;4.498;2023-08-01T07:01:20;99778.31;;;23.52;100.00
72414;BME280;60995;52.154;4.498;2023-08-01T07:03:38;99766.78;;;25.34;100.00
72414;BME280;60995;52.154;4.498;2023-08-01T07:05:54;99770.53;;;26.09;100.00
72414;BME280;60995;52.154;4.498;2023-08-01T07:08:10;99770.31;;;26.64;100.00
72414;BME280;60995;52.154;4.498;2023-08-01T07:10:27;99758.69;;;27.67;100.00
72414;BME280;60995;52.154;4.498;2023-08-01T07:12:43;99763.78;;;25.68;100.00
72414;BME280;60995;52.154;4.498;2023-08-01T07:15:03;99770.63;;;23.71;100.00
72414;BME280;60995;52.154;4.498;2023-08-01T07:17:19;99785.72;;;22.65;100.00
72414;BME280;60995;52.154;4.498;2023-08-01T07:19:35;99784.16;;;22.69;100.00
72414;BME280;60995;52.154;4.498;2023-08-01T07:21:52;99791.84;;;23.48;100.00
72414;BME280;60995;52.154;4.498;2023-08-01T07:24:08;99783.44;;;24.84;100.00
72414;BME280;60995;52.154;4.498;2023-08-01T07:26:24;99788.59;;;24.58;100.00
72414;BME280;60995;52.154;4.498;2023-08-01T07:28:41;99795.16;;;23.96;100.00
72414;BME280;60995;52.154;4.498;2023-08-01T07:31:01;99792.41;;;25.14;100.00
72414;BME280;60995;52.154;4.498;2023-08-01T07:33:19;99789.94;;;26.42;100.00
72414;BME280;60995;52.154;4.498;2023-08-01T07:35:35;99789.31;;;27.46;100.00
72414;BME280;60995;52.154;4.498;2023-08-01T07:37:51;99777.38;;;26.77;100.00
72414;BME280;60995;52.154;4.498;2023-08-01T07:40:08;99776.19;;;26.68;100.00
72414;BME280;60995;52.154;4.498;2023-08-01T07:42:25;99790.44;;;26.29;100.00
72414;BME280;60995;52.154;4.498;2023-08-01T07:44:41;99780.69;;;26.74;100.00
72414;BME280;60995;52.154;4.498;2023-08-01T07:46:57;99783.16;;;27.39;100.00
72414;BME280;60995;52.154;4.498;2023-08-01T07:49:14;99791.25;;;27.40;100.00
72414;BME280;60995;52.154;4.498;2023-08-01T07:51:30;99781.50;;;25.62;100.00
72414;BME280;60995;52.154;4.498;2023-08-01T07:53:46;99798.16;;;23.32;100.00
72414;BME280;60995;52.154;4.498;2023-08-01T07:56:03;99823.81;;;22.03;100.00
72414;BME280;60995;52.154;4.498;2023-08-01T07:58:22;99832.25;;;22.44;100.00
72414;BME280;60995;52.154;4.498;2023-08-01T08:00:39;99841.47;;;22.14;100.00
72414;BME280;60995;52.154;4.498;2023-08-01T08:02:55;99843.47;;;21.95;100.00
72414;BME280;60995;52.154;4.498;2023-08-01T08:05:11;99862.69;;;22.02;100.00
72414;BME280;60995;52.154;4.498;2023-08-01T08:07:28;99856.19;;;21.54;100.00
72414;BME280;60995;52.154;4.498;2023-08-01T08:09:45;99876.34;;;21.54;100.00
72414;BME280;60995;52.154;4.498;2023-08-01T08:12:01;99876.44;;;21.47;100.00
72414;BME280;60995;52.154;4.498;2023-08-01T08:14:17;99875.34;;;21.67;100.00
72414;BME280;60995;52.154;4.498;2023-08-01T08:16:33;99889.44;;;20.91;100.00
72414;BME280;60995;52.154;4.498;2023-08-01T08:18:50;99893.34;;;22.24;100.00
72414;BME280;60995;52.154;4.498;2023-08-01T08:21:06;99885.09;;;21.81;100.00
72414;BME280;60995;52.154;4.498;2023-08-01T08:23:22;99889.44;;;21.40;100.00
72414;BME280;60995;52.154;4.498;2023-08-01T08:27:55;99909.63;;;21.04;100.00
72414;BME280;60995;52.154;4.498;2023-08-01T08:30:15;99904.13;;;21.41;100.00
72414;BME280;60995;52.154;4.498;2023-08-01T08:32:31;99901.75;;;21.07;100.00
72414;BME280;60995;52.154;4.498;2023-08-01T08:34:47;99905.97;;;20.91;100.00
72414;BME280;60995;52.154;4.498;2023-08-01T08:37:04;99900.81;;;20.76;100.00
72414;BME280;60995;52.154;4.498;2023-08-01T08:39:20;99901.88;;;20.75;100.00
72414;BME280;60995;52.154;4.498;2023-08-01T08:41:50;99902.34;;;21.77;100.00
72414;BME280;60995;52.154;4.498;2023-08-01T08:44:08;99881.88;;;22.39;100.00
72414;BME280;60995;52.154;4.498;2023-08-01T08:46:29;99885.59;;;22.56;100.00
72414;BME280;60995;52.154;4.498;2023-08-01T08:48:46;99860.59;;;24.87;100.00
72414;BME280;60995;52.154;4.498;2023-08-01T08:51:03;99841.25;;;25.37;100.00
72414;BME280;60995;52.154;4.498;2023-08-01T08:53:20;99841.56;;;25.95;100.00
72414;BME280;60995;52.154;4.498;2023-08-01T08:55:39;99847.53;;;24.49;100.00
72414;BME280;60995;52.154;4.498;2023-08-01T08:57:56;99853.91;;;23.52;100.00
72414;BME280;60995;52.154;4.498;2023-08-01T09:00:13;99842.84;;;24.88;100.00
72414;BME280;60995;52.154;4.498;2023-08-01T09:02:30;99837.09;;;25.94;100.00
72414;BME280;60995;52.154;4.498;2023-08-01T09:04:48;99830.59;;;26.48;100.00
72414;BME280;60995;52.154;4.498;2023-08-01T09:07:08;99838.28;;;25.43;100.00
72414;BME280;60995;52.154;4.498;2023-08-01T09:09:26;99845.47;;;24.78;100.00
72414;BME280;60995;52.154;4.498;2023-08-01T09:11:51;99861.50;;;22.33;100.00
72414;BME280;60995;52.154;4.498;2023-08-01T09:14:08;99862.56;;;23.03;100.00
72414;BME280;60995;52.154;4.498;2023-08-01T09:16:26;99849.53;;;24.53;100.00
72414;BME280;60995;52.154;4.498;2023-08-01T09:18:50;99847.97;;;23.60;100.00
72414;BME280;60995;52.154;4.498;2023-08-01T09:21:07;99845.16;;;24.57;100.00
72414;BME280;60995;52.154;4.498;2023-08-01T09:23:24;99839.66;;;24.23;100.00
72414;BME280;60995;52.154;4.498;2023-08-01T09:25:41;99853.78;;;23.76;100.00
72414;BME280;60995;52.154;4.498;2023-08-01T09:27:57;99856.03;;;23.62;100.00
72414;BME280;60995;52.154;4.498;2023-08-01T09:30:14;99847.19;;;24.62;100.00
72414;BME280;60995;52.154;4.498;2023-08-01T09:32:33;99861.78;;;24.91;100.00
72414;BME280;60995;52.154;4.498;2023-08-01T09:34:58;99862.94;;;24.96;100.00
72414;BME280;60995;52.154;4.498;2023-08-01T09:37:15;99857.38;;;25.18;100.00
72414;BME280;60995;52.154;4.498;2023-08-01T09:39:33;99844.59;;;25.39;100.00
72414;BME280;60995;52.154;4.498;2023-08-01T09:42:00;99865.53;;;24.29;100.00
72414;BME280;60995;52.154;4.498;2023-08-01T09:44:17;99874.34;;;23.80;100.00
72414;BME280;60995;52.154;4.498;2023-08-01T09:46:33;99873.94;;;24.34;100.00
72414;BME280;60995;52.154;4.498;2023-08-01T09:48:50;99873.66;;;25.09;100.00
72414;BME280;60995;52.154;4.498;2023-08-01T09:51:11;99869.97;;;26.02;100.00
72414;BME280;60995;52.154;4.498;2023-08-01T09:53:29;99864.28;;;25.15;100.00
72414;BME280;60995;52.154;4.498;2023-08-01T09:55:45;99869.78;;;25.10;100.00
72414;BME280;60995;52.154;4.498;2023-08-01T09:58:07;99880.66;;;24.21;100.00
72414;BME280;60995;52.154;4.498;2023-08-01T10:00:27;99873.69;;;24.36;100.00
72414;BME280;60995;52.154;4.498;2023-08-01T10:02:44;99880.31;;;24.01;100.00
72414;BME280;60995;52.154;4.498;2023-08-01T10:05:02;99881.00;;;24.25;100.00
72414;BME280;60995;52.154;4.498;2023-08-01T10:07:23;99871.41;;;24.50;100.00
72414;BME280;60995;52.154;4.498;2023-08-01T10:09:44;99877.69;;;24.45;100.00
72414;BME280;60995;52.154;4.498;2023-08-01T10:12:01;99880.13;;;24.07;100.00
72414;BME280;60995;52.154;4.498;2023-08-01T10:14:21;99883.59;;;25.05;100.00
72414;BME280;60995;52.154;4.498;2023-08-01T10:16:40;99887.53;;;24.36;100.00
72414;BME280;60995;52.154;4.498;2023-08-01T10:18:59;99888.28;;;24.31;100.00
72414;BME280;60995;52.154;4.498;2023-08-01T10:21:17;99886.38;;;25.05;100.00
72414;BME280;60995;52.154;4.498;2023-08-01T10:23:35;99888.34;;;25.32;100.00
72414;BME280;60995;52.154;4.498;2023-08-01T10:25:53;99883.13;;;24.91;100.00
72414;BME280;60995;52.154;4.498;2023-08-01T10:28:10;99885.59;;;24.19;100.00
72414;BME280;60995;52.154;4.498;2023-08-01T10:30:27;99893.84;;;23.85;100.00
72414;BME280;60995;52.154;4.498;2023-08-01T10:32:44;99890.00;;;25.50;100.00
72414;BME280;60995;52.154;4.498;2023-08-01T10:35:01;99886.56;;;25.92;100.00
72414;BME280;60995;52.154;4.498;2023-08-01T10:37:17;99880.41;;;27.61;100.00
72414;BME280;60995;52.154;4.498;2023-08-01T10:39:33;99895.66;;;27.33;100.00
72414;BME280;60995;52.154;4.498;2023-08-01T10:42:00;99879.63;;;27.76;100.00
72414;BME280;60995;52.154;4.498;2023-08-01T10:44:19;99884.63;;;27.69;100.00
72414;BME280;60995;52.154;4.498;2023-08-01T10:47:02;99900.88;;;28.18;100.00
72414;BME280;60995;52.154;4.498;2023-08-01T10:49:32;99887.44;;;28.93;100.00
72414;BME280;60995;52.154;4.498;2023-08-01T10:51:51;99900.91;;;28.23;100.00
72414;BME280;60995;52.154;4.498;2023-08-01T10:54:18;99915.69;;;28.65;100.00
72414;BME280;60995;52.154;4.498;2023-08-01T10:56:36;99911.69;;;29.78;100.00
72414;BME280;60995;52.154;4.498;2023-08-01T10:58:54;99924.31;;;28.48;100.00
72414;BME280;60995;52.154;4.498;2023-08-01T11:01:10;99920.56;;;27.02;100.00
72414;BME280;60995;52.154;4.498;2023-08-01T11:03:34;99920.38;;;26.76;100.00
72414;BME280;60995;52.154;4.498;2023-08-01T11:05:57;99916.66;;;27.03;100.00
72414;BME280;60995;52.154;4.498;2023-08-01T11:08:14;99940.91;;;27.61;100.00
72414;BME280;60995;52.154;4.498;2023-08-01T11:10:31;99934.22;;;26.06;100.00
72414;BME280;60995;52.154;4.498;2023-08-01T11:12:48;99940.00;;;23.79;100.00
72414;BME280;60995;52.154;4.498;2023-08-01T11:15:06;99939.22;;;23.96;100.00
72414;BME280;60995;52.154;4.498;2023-08-01T11:17:25;99926.19;;;24.25;100.00
72414;BME280;60995;52.154;4.498;2023-08-01T11:19:41;99927.47;;;23.48;100.00
72414;BME280;60995;52.154;4.498;2023-08-01T11:21:57;99925.16;;;24.15;100.00
72414;BME280;60995;52.154;4.498;2023-08-01T11:24:14;99914.13;;;25.27;100.00
72414;BME280;60995;52.154;4.498;2023-08-01T11:26:32;99912.13;;;25.67;100.00
72414;BME280;60995;52.154;4.498;2023-08-01T11:28:48;99937.25;;;24.93;100.00
72414;BME280;60995;52.154;4.498;2023-08-01T11:31:11;99935.75;;;24.52;100.00
72414;BME280;60995;52.154;4.498;2023-08-01T11:33:28;99938.16;;;25.16;100.00
72414;BME280;60995;52.154;4.498;2023-08-01T11:35:52;99945.44;;;25.22;100.00
72414;BME280;60995;52.154;4.498;2023-08-01T11:38:12;99938.84;;;25.29;100.00
72414;BME280;60995;52.154;4.498;2023-08-01T11:40:28;99938.75;;;25.63;100.00
72414;BME280;60995;52.154;4.498;2023-08-01T11:42:49;99943.31;;;26.23;100.00
72414;BME280;60995;52.154;4.498;2023-08-01T11:45:11;99942.31;;;25.58;100.00
72414;BME280;60995;52.154;4.498;2023-08-01T11:47:28;99944.41;;;25.73;100.00
72414;BME280;60995;52.154;4.498;2023-08-01T11:49:49;99942.16;;;25.25;100.00
72414;BME280;60995;52.154;4.498;2023-08-01T11:52:06;99957.94;;;24.52;100.00
72414;BME280;60995;52.154;4.498;2023-08-01T11:54:23;99970.91;;;23.88;100.00
72414;BME280;60995;52.154;4.498;2023-08-01T11:56:40;99976.72;;;22.63;100.00
72414;BME280;60995;52.154;4.498;2023-08-01T11:58:57;100002.56;;;22.57;100.00